SBSR

Details ICAO SBSR (SJP)
Name SAO JOSE DO RIO PRETO
Region Brazil
Timezone America/Sao_Paulo (UTC-3.0)
Plans Departing 32
Arriving 45
Stats Elevation 1,784 ft / 544 m (AMSL)
Location -20.816565° -49.406510°
Runways 1
Magnetic Variation 20.538° W
Sunrise 2018-05-24 09:45:14 UTC / 2018-05-24 06:45:14 Local
Sunset 2018-05-24 20:46:35 UTC / 2018-05-24 17:46:35 Local
Advertisement - Login to hide

Runways

ID Width Length Bearing (true) Bearing (mag) Surface Threshold Offset Overrun Length
07 115 ft / 35 m 5,373 ft / 1,638 m 51.42° 71.96° Asphalt 0 ft / 0 m 0 ft / 0 m
25 115 ft / 35 m 5,373 ft / 1,638 m 231.42° 251.96° Asphalt 0 ft / 0 m 0 ft / 0 m

Map

Weather


0- 5 10 15 20 25 30 35+ Temperature / ° C

Clouds and Precipitation
Forecast for 2018-05-24 06:00 UTC. Updated 2 hours ago

Ground ~20,000 ft ~40,000 ft Winds

METAR

SBSR 240600Z 20003KT CAVOK 17/09 Q1021

TAF

Not found

Frequencies

Tower 130.85 MHz RDO
Warning: Do not use this data for real-world aviation or navigation. No guarantee of current accuracy is given.